Terminal Aerodrome Forecast
Issued by NWS

Home | Current Version | Previous Version | Text Only | Print | Product List | Glossary On
Versions: 1 2 3 4 5 6 7 8 9 10 11 12 13
181
FTUS43 KDLH 232333
TAFBRD
TAF
KBRD 232333Z 2400/2424 30006KT P6SM BKN090
     FM240200 VRB03KT P6SM SCT090
     FM240600 35004KT P6SM BKN120
     FM241200 01009KT P6SM VCSH BKN050
     FM241600 34011G16KT P6SM SCT050=

USA.gov is the U.S. government's official web portal to all federal, state and local government web resources and services.